Woodland Park, Colorado
Current Conditions -  °F | °C
As of 4:58 PM on Saturday 25 Oct 2014 (Local Time) from KAFF Reporting Station
Clear Clear  
Wind Chill: 73°   Ceiling: Unl
Heat Index: 73°   Visibility: 10mi
Dew Point: 17°   Wind: 14mph
Humidity: 12%   Direction: 150°SSE
Pressure: 30.16"   Gusts: NA
Location:  38.99°N, 105.05°W
Report Text: KAFF 252258Z AUTO 15012KT 10SM CLR 23/M08 A3016 RMK AO2 SLP142 T02281081
Loading
Personal Weather Stations






























Interactive Weather Map
Tropical Storm Tracking
New forecast layout! Learn more

10-Day Weather Forecast

Advertisements
Track Severe Weather on mobile